Time;durP1;ratioP1;P1;durP2;ratioP2;P2;SDS_P1;SDS_P2;PMS_P1;PMS_P2;Temp;Humidity;BMP_temperature;BMP_pressure;BME280_temperature;BME280_humidity;BME280_pressure;Samples;Min_cycle;Max_cycle;Signal;HPM_P1;HPM_P2
2022/07/26 00:00:15;;;;;;;12.43;3.63;;;18.00;99.90;;;;;;4943978;29;20586;-56
2022/07/26 00:02:41;;;;;;;17.95;4.28;;;18.00;99.90;;;;;;4943583;29;20126;-54
2022/07/26 00:05:07;;;;;;;16.88;4.43;;;18.00;99.90;;;;;;4943479;29;20142;-54
2022/07/26 00:07:33;;;;;;;14.48;3.67;;;18.00;99.90;;;;;;4953355;28;20069;-54
2022/07/26 00:09:59;;;;;;;15.70;3.47;;;18.00;99.90;;;;;;4944101;28;20051;-53
2022/07/26 00:12:25;;;;;;;17.63;4.13;;;17.90;99.90;;;;;;4943102;28;20063;-54
2022/07/26 00:14:51;;;;;;;18.42;3.95;;;18.00;99.90;;;;;;4943197;29;20040;-54
2022/07/26 00:17:17;;;;;;;14.07;3.70;;;17.90;99.90;;;;;;4942853;29;20606;-54
2022/07/26 00:19:42;;;;;;;12.52;3.55;;;17.90;99.90;;;;;;4943371;29;20118;-55
2022/07/26 00:24:53;;;;;;;18.73;3.88;;;17.90;99.90;;;;;;4943682;29;20060;-54
2022/07/26 00:27:18;;;;;;;22.38;4.13;;;18.10;99.90;;;;;;4942873;29;20499;-54
2022/07/26 00:29:44;;;;;;;16.95;4.57;;;17.90;99.90;;;;;;4943545;29;20044;-53
2022/07/26 00:32:09;;;;;;;13.63;3.20;;;18.00;99.90;;;;;;4942444;29;20043;-53
2022/07/26 00:34:35;;;;;;;16.42;4.05;;;18.00;99.90;;;;;;4942302;29;20054;-54
2022/07/26 00:37:01;;;;;;;16.48;4.05;;;18.00;99.90;;;;;;4925912;29;20047;-54
2022/07/26 00:39:27;;;;;;;15.50;3.42;;;18.00;99.90;;;;;;4925389;29;20086;-54
2022/07/26 00:41:53;;;;;;;14.55;3.75;;;18.10;99.90;;;;;;4942546;29;20122;-53
2022/07/26 00:44:19;;;;;;;15.80;3.65;;;18.10;99.90;;;;;;4942582;29;20051;-55
2022/07/26 00:46:45;;;;;;;19.23;4.15;;;18.10;99.90;;;;;;4943386;29;20152;-52
2022/07/26 00:49:11;;;;;;;15.50;3.85;;;18.00;99.90;;;;;;4942776;29;20407;-54
2022/07/26 00:51:37;;;;;;;19.92;4.63;;;18.00;99.90;;;;;;4942418;29;20164;-53
2022/07/26 00:54:04;;;;;;;15.55;3.63;;;18.00;99.90;;;;;;4942926;29;20035;-54
2022/07/26 00:56:33;;;;;;;19.48;3.90;;;18.10;99.90;;;;;;4942599;29;20055;-53
2022/07/26 00:58:59;;;;;;;18.02;4.15;;;18.00;99.90;;;;;;4942380;29;20675;-55
2022/07/26 01:01:25;;;;;;;22.85;4.63;;;18.00;99.90;;;;;;4942850;29;20457;-54
2022/07/26 01:03:52;;;;;;;19.52;4.15;;;18.00;99.90;;;;;;4942363;29;20043;-53
2022/07/26 01:06:19;;;;;;;17.10;4.07;;;18.00;99.90;;;;;;4940881;28;20062;-54
2022/07/26 01:08:45;;;;;;;20.58;4.18;;;18.00;99.90;;;;;;4950876;28;20059;-54
2022/07/26 01:11:11;;;;;;;20.48;4.20;;;18.00;99.90;;;;;;4925932;29;20376;-54
2022/07/26 01:13:36;;;;;;;11.77;3.65;;;18.00;99.90;;;;;;4998687;22;20098;-54
2022/07/26 01:16:03;;;;;;;18.80;4.30;;;18.00;99.90;;;;;;5009302;28;20533;-54
2022/07/26 01:18:28;;;;;;;17.35;4.18;;;18.10;99.90;;;;;;5018538;28;20033;-57
2022/07/26 01:20:56;;;;;;;18.55;4.03;;;18.10;99.90;;;;;;5020937;28;20045;-54
2022/07/26 01:23:22;;;;;;;18.00;4.25;;;18.10;99.90;;;;;;5020427;28;20053;-53
2022/07/26 01:25:48;;;;;;;18.75;5.20;;;18.10;99.90;;;;;;5002578;28;20049;-54
2022/07/26 01:28:13;;;;;;;17.23;4.68;;;18.10;99.90;;;;;;5020355;28;20147;-54
2022/07/26 01:30:39;;;;;;;18.70;4.50;;;18.10;99.90;;;;;;5020541;28;20093;-53
2022/07/26 01:33:05;;;;;;;21.95;4.88;;;18.10;99.90;;;;;;5019667;28;20103;-53
2022/07/26 01:35:30;;;;;;;15.40;4.38;;;18.10;99.90;;;;;;5020107;28;20483;-54
2022/07/26 01:37:56;;;;;;;17.10;4.47;;;18.10;99.90;;;;;;5020064;28;20087;-55
2022/07/26 01:40:22;;;;;;;22.85;4.93;;;18.10;99.90;;;;;;5019861;28;20052;-54
2022/07/26 01:42:47;;;;;;;17.40;4.03;;;18.10;99.90;;;;;;5020360;28;20119;-53
2022/07/26 01:45:13;;;;;;;13.35;4.13;;;18.10;99.90;;;;;;5020560;28;20049;-53
2022/07/26 01:47:39;;;;;;;17.67;4.20;;;18.10;99.90;;;;;;5018809;28;20041;-54
2022/07/26 01:50:07;;;;;;;18.17;3.70;;;18.10;99.90;;;;;;5020319;28;20049;-53
2022/07/26 01:52:34;;;;;;;13.50;3.33;;;18.10;99.90;;;;;;5020263;28;20041;-53
2022/07/26 01:55:00;;;;;;;11.80;3.22;;;18.10;99.90;;;;;;5019836;28;20041;-53
2022/07/26 01:57:26;;;;;;;11.45;3.10;;;18.10;99.90;;;;;;5019806;28;20565;-54
2022/07/26 01:59:51;;;;;;;11.57;3.30;;;18.00;99.90;;;;;;5020262;28;20045;-53
2022/07/26 02:02:17;;;;;;;15.15;3.70;;;18.00;99.90;;;;;;5019088;28;20100;-55
2022/07/26 02:04:58;;;;;;;15.88;3.42;;;18.00;99.90;;;;;;5020072;28;20049;-54
2022/07/26 02:07:28;;;;;;;14.88;3.58;;;18.00;99.90;;;;;;5013344;28;20148;-54
2022/07/26 02:09:54;;;;;;;16.98;3.95;;;18.00;99.90;;;;;;5001350;28;20053;-53
2022/07/26 02:12:20;;;;;;;18.48;3.28;;;17.90;99.90;;;;;;4999364;28;20066;-54
2022/07/26 02:14:46;;;;;;;14.18;3.65;;;17.90;99.90;;;;;;5000553;28;20116;-57
2022/07/26 02:17:11;;;;;;;16.13;3.90;;;18.00;99.90;;;;;;5000166;28;20044;-57
2022/07/26 02:19:37;;;;;;;12.48;3.35;;;18.00;99.90;;;;;;4982839;28;20054;-53
2022/07/26 02:22:03;;;;;;;12.82;3.58;;;18.00;99.90;;;;;;4999780;28;20054;-55
2022/07/26 02:24:29;;;;;;;12.45;3.50;;;17.90;99.90;;;;;;4999930;28;20045;-54
2022/07/26 02:26:56;;;;;;;15.13;3.65;;;17.90;99.90;;;;;;5000425;28;20104;-54
2022/07/26 02:29:22;;;;;;;11.50;3.20;;;17.90;99.90;;;;;;5000188;28;20045;-54
2022/07/26 02:31:47;;;;;;;11.98;3.58;;;17.90;99.90;;;;;;4999920;28;20076;-53
2022/07/26 02:34:13;;;;;;;11.63;3.67;;;17.90;99.90;;;;;;4999969;28;20070;-54
2022/07/26 02:36:38;;;;;;;9.50;3.15;;;17.90;99.90;;;;;;5000692;28;20095;-54
2022/07/26 02:39:04;;;;;;;15.50;3.97;;;17.90;99.90;;;;;;5003760;28;20046;-53
2022/07/26 02:41:30;;;;;;;10.73;2.90;;;17.90;99.90;;;;;;5002618;28;20045;-53
2022/07/26 02:43:56;;;;;;;14.07;4.05;;;17.80;99.90;;;;;;5002556;28;20141;-55
2022/07/26 02:46:22;;;;;;;13.35;3.58;;;17.80;99.90;;;;;;5003293;28;20054;-53
2022/07/26 02:48:48;;;;;;;10.35;3.53;;;17.90;99.90;;;;;;5003390;28;20119;-54
2022/07/26 02:51:13;;;;;;;10.52;3.75;;;17.80;99.90;;;;;;5003129;28;20393;-54
2022/07/26 02:53:39;;;;;;;13.13;3.55;;;17.90;99.90;;;;;;5003159;28;20408;-54
2022/07/26 02:56:05;;;;;;;12.13;3.50;;;17.80;99.90;;;;;;5003630;28;20042;-54
2022/07/26 02:58:30;;;;;;;12.25;3.50;;;17.80;99.90;;;;;;5003233;28;20045;-54
2022/07/26 03:00:56;;;;;;;11.48;3.17;;;17.80;99.90;;;;;;4985244;28;20041;-53
2022/07/26 03:03:22;;;;;;;11.98;3.50;;;17.80;99.90;;;;;;5002685;28;20113;-53
2022/07/26 03:05:47;;;;;;;11.73;3.83;;;17.70;99.90;;;;;;5004221;28;20116;-53
2022/07/26 03:08:13;;;;;;;11.35;4.40;;;17.70;99.90;;;;;;5013744;28;20045;-52
2022/07/26 03:10:39;;;;;;;15.75;5.05;;;17.60;99.90;;;;;;5002721;28;20038;-53
2022/07/26 03:13:04;;;;;;;12.45;3.88;;;17.40;99.90;;;;;;4985375;28;20049;-49
2022/07/26 03:15:30;;;;;;;8.32;3.15;;;17.20;99.90;;;;;;5003011;28;20049;-53
2022/07/26 03:17:56;;;;;;;10.38;3.60;;;17.20;99.90;;;;;;5002452;28;20069;-55
2022/07/26 03:20:22;;;;;;;10.25;3.40;;;17.10;99.90;;;;;;5002595;28;20050;-52
2022/07/26 03:22:47;;;;;;;7.80;3.22;;;17.10;99.90;;;;;;5002906;28;20037;-52
2022/07/26 03:25:14;;;;;;;9.95;3.28;;;17.10;99.90;;;;;;5003275;28;20056;-53
2022/07/26 03:27:39;;;;;;;10.48;3.72;;;17.00;99.90;;;;;;5002429;28;20037;-52
2022/07/26 03:30:06;;;;;;;8.15;3.17;;;16.90;99.90;;;;;;5002767;28;20503;-51
2022/07/26 03:32:32;;;;;;;8.85;3.53;;;17.00;99.90;;;;;;5002080;28;20524;-52
2022/07/26 03:34:57;;;;;;;9.38;3.55;;;16.90;99.90;;;;;;5002929;28;20120;-51
2022/07/26 03:37:23;;;;;;;8.38;3.30;;;17.00;99.90;;;;;;5001728;28;20057;-55
2022/07/26 03:39:49;;;;;;;10.77;3.40;;;17.00;99.90;;;;;;5002693;28;20045;-52
2022/07/26 03:42:16;;;;;;;9.93;3.28;;;16.90;99.90;;;;;;5002690;28;20034;-49
2022/07/26 03:44:42;;;;;;;13.13;3.97;;;17.00;99.90;;;;;;5002864;28;20049;-55
2022/07/26 03:47:07;;;;;;;10.95;3.08;;;17.00;99.90;;;;;;5001144;28;20037;-51
2022/07/26 03:49:33;;;;;;;11.23;3.58;;;17.00;99.90;;;;;;5001964;28;20599;-53
2022/07/26 03:51:59;;;;;;;10.07;2.83;;;16.90;99.90;;;;;;5002195;28;20202;-53
2022/07/26 03:54:24;;;;;;;8.65;3.17;;;16.90;99.90;;;;;;5002270;28;20042;-51
2022/07/26 03:56:50;;;;;;;9.10;2.88;;;17.00;99.90;;;;;;4984554;28;20065;-49
2022/07/26 03:59:17;;;;;;;10.70;2.65;;;17.00;99.90;;;;;;5002077;28;20042;-53
2022/07/26 04:01:44;;;;;;;11.77;3.25;;;16.90;99.90;;;;;;4985149;28;20124;-52
2022/07/26 04:04:11;;;;;;;11.13;2.75;;;16.90;99.90;;;;;;5001280;28;20104;-50
2022/07/26 04:06:38;;;;;;;8.93;2.42;;;16.90;99.90;;;;;;5003961;28;20053;-53
2022/07/26 04:09:05;;;;;;;7.00;2.28;;;16.90;99.90;;;;;;5009914;28;20038;-52
2022/07/26 04:11:30;;;;;;;10.38;2.38;;;16.90;99.90;;;;;;5001707;28;20049;-53
2022/07/26 04:13:57;;;;;;;9.45;2.42;;;16.90;99.90;;;;;;5001684;28;20133;-51
2022/07/26 04:16:23;;;;;;;8.90;1.92;;;17.00;99.90;;;;;;5001342;28;20046;-52
2022/07/26 04:18:48;;;;;;;8.90;2.10;;;16.90;99.90;;;;;;5001407;28;20129;-53
2022/07/26 04:21:14;;;;;;;8.02;2.10;;;17.00;99.90;;;;;;5002166;28;20129;-53
2022/07/26 04:23:40;;;;;;;9.18;2.30;;;17.00;99.90;;;;;;5001139;28;20506;-52
2022/07/26 04:26:05;;;;;;;8.35;2.13;;;17.10;99.90;;;;;;5001851;28;20186;-50
2022/07/26 04:28:32;;;;;;;8.15;1.92;;;17.00;99.90;;;;;;5001452;28;20050;-53
2022/07/26 04:30:58;;;;;;;10.82;2.17;;;17.00;99.90;;;;;;5001701;28;20408;-52
2022/07/26 04:33:24;;;;;;;9.48;1.88;;;17.00;99.90;;;;;;4982292;28;20049;-53
2022/07/26 04:35:52;;;;;;;8.48;1.92;;;17.00;99.90;;;;;;5001618;28;20137;-51
2022/07/26 04:38:18;;;;;;;6.30;1.88;;;17.00;99.90;;;;;;4983509;28;20053;-52
2022/07/26 04:40:43;;;;;;;8.70;1.73;;;17.00;99.90;;;;;;5001794;28;20046;-50
2022/07/26 04:43:09;;;;;;;6.63;1.65;;;17.00;99.90;;;;;;5001042;28;20481;-52
2022/07/26 04:45:35;;;;;;;7.28;1.45;;;17.00;99.90;;;;;;4983937;28;21197;-52
2022/07/26 04:48:02;;;;;;;8.18;1.98;;;17.00;99.90;;;;;;5000804;28;20133;-52
2022/07/26 04:50:27;;;;;;;6.78;1.45;;;16.90;99.90;;;;;;5001130;28;20055;-52
2022/07/26 04:52:53;;;;;;;6.40;1.40;;;16.90;99.90;;;;;;5000997;28;20053;-52
2022/07/26 04:55:20;;;;;;;6.72;1.58;;;16.70;99.90;;;;;;5001016;28;20041;-53
2022/07/26 04:57:46;;;;;;;11.70;1.63;;;16.90;99.90;;;;;;5001710;28;20049;-52
2022/07/26 05:00:13;;;;;;;8.05;1.73;;;17.00;99.90;;;;;;5000706;28;20049;-56
2022/07/26 05:02:39;;;;;;;7.10;1.50;;;17.00;99.90;;;;;;4982112;28;20550;-52
2022/07/26 05:05:06;;;;;;;5.97;1.20;;;17.00;99.90;;;;;;5001262;28;20038;-53
2022/07/26 05:07:40;;;;;;;9.52;1.35;;;17.00;99.90;;;;;;5011194;28;20111;-53
2022/07/26 05:10:06;;;;;;;7.65;1.30;;;17.10;99.90;;;;;;5000738;28;20051;-53
2022/07/26 05:12:32;;;;;;;7.30;1.20;;;17.10;99.90;;;;;;5000465;28;20144;-52
2022/07/26 05:14:58;;;;;;;6.20;1.00;;;17.10;99.90;;;;;;5000708;28;20137;-53
2022/07/26 05:17:39;;;;;;;7.30;1.27;;;17.00;99.90;;;;;;4955879;28;20116;-53
2022/07/26 05:20:06;;;;;;;11.18;1.70;;;16.90;99.90;;;;;;5000867;28;20038;-50
2022/07/26 05:22:33;;;;;;;9.10;1.00;;;16.90;99.90;;;;;;5000290;28;20108;-53
2022/07/26 05:24:59;;;;;;;6.32;1.30;;;16.80;99.90;;;;;;5000745;28;20081;-51
2022/07/26 05:27:25;;;;;;;4.30;1.02;;;16.90;99.90;;;;;;4999910;28;20081;-52
2022/07/26 05:29:50;;;;;;;5.47;0.98;;;16.80;99.90;;;;;;5000799;28;20095;-52
2022/07/26 05:32:17;;;;;;;6.47;1.00;;;16.70;99.90;;;;;;4999683;28;20045;-53
2022/07/26 05:34:42;;;;;;;5.60;0.90;;;16.60;99.90;;;;;;5000970;28;20050;-54
2022/07/26 05:37:08;;;;;;;6.45;0.82;;;16.70;99.90;;;;;;5000224;28;20492;-51
2022/07/26 05:39:34;;;;;;;6.68;1.00;;;16.60;99.90;;;;;;5000013;28;20096;-52
2022/07/26 05:41:59;;;;;;;6.07;0.70;;;16.60;99.90;;;;;;5000379;28;20053;-50
2022/07/26 05:44:25;;;;;;;3.40;0.80;;;16.60;99.90;;;;;;4999779;28;20049;-52
2022/07/26 05:46:51;;;;;;;5.80;0.93;;;16.70;99.90;;;;;;4999407;28;21053;-53
2022/07/26 05:49:16;;;;;;;4.43;0.95;;;16.60;99.90;;;;;;5000065;28;20049;-56
2022/07/26 05:51:42;;;;;;;5.75;0.70;;;16.60;99.90;;;;;;5000885;28;20184;-53
2022/07/26 05:54:08;;;;;;;4.38;0.82;;;16.60;99.90;;;;;;5000175;28;20450;-52
2022/07/26 05:56:33;;;;;;;6.13;0.85;;;16.70;99.90;;;;;;4999974;28;20053;-52
2022/07/26 05:58:59;;;;;;;7.18;1.15;;;16.80;99.90;;;;;;5000435;28;20049;-52
2022/07/26 06:01:24;;;;;;;7.78;0.90;;;16.80;99.90;;;;;;5000177;28;20037;-52
2022/07/26 06:03:50;;;;;;;4.50;0.90;;;16.80;99.90;;;;;;4999381;28;20112;-53
2022/07/26 06:06:16;;;;;;;5.90;1.30;;;16.80;99.90;;;;;;5002268;28;20083;-53
2022/07/26 06:08:42;;;;;;;6.80;1.10;;;16.90;99.90;;;;;;5009424;28;20088;-55
2022/07/26 06:11:07;;;;;;;5.35;0.90;;;17.00;99.90;;;;;;5001195;28;20050;-50
2022/07/26 06:13:33;;;;;;;5.35;1.00;;;17.00;99.90;;;;;;5003232;28;20108;-52
2022/07/26 06:15:59;;;;;;;4.82;0.70;;;16.60;99.90;;;;;;5004000;28;20096;-48
2022/07/26 06:18:25;;;;;;;3.33;0.68;;;16.60;99.90;;;;;;5003000;28;20052;-50
2022/07/26 06:20:51;;;;;;;3.42;0.80;;;16.50;99.90;;;;;;5004191;28;20046;-53
2022/07/26 06:23:16;;;;;;;3.40;0.70;;;16.40;99.90;;;;;;5003007;28;20045;-57
2022/07/26 06:25:42;;;;;;;4.38;0.88;;;16.30;99.90;;;;;;5004430;28;20042;-48
2022/07/26 06:28:09;;;;;;;4.80;0.90;;;16.40;99.90;;;;;;4986175;28;20167;-52
2022/07/26 06:30:38;;;;;;;4.88;0.85;;;16.40;99.90;;;;;;5003770;28;20080;-51
2022/07/26 06:33:05;;;;;;;4.90;0.90;;;16.30;99.90;;;;;;5002819;28;20053;-51
2022/07/26 06:35:31;;;;;;;6.00;1.58;;;16.40;99.90;;;;;;5003631;28;20103;-54
2022/07/26 06:37:58;;;;;;;11.32;1.10;;;16.40;99.90;;;;;;5003848;28;20054;-50
2022/07/26 06:40:24;;;;;;;3.60;0.77;;;16.50;99.90;;;;;;5003011;28;20072;-52
2022/07/26 06:42:50;;;;;;;5.50;1.10;;;16.50;99.90;;;;;;5003054;28;20062;-50
2022/07/26 06:45:16;;;;;;;5.60;1.20;;;16.50;99.90;;;;;;5003433;28;20141;-52
2022/07/26 06:47:41;;;;;;;4.10;1.02;;;16.60;99.90;;;;;;5003248;28;20100;-55
2022/07/26 06:50:08;;;;;;;6.93;1.20;;;16.70;99.90;;;;;;5003378;28;20041;-53
2022/07/26 06:52:33;;;;;;;4.25;0.80;;;16.90;99.90;;;;;;5002534;28;20045;-52
2022/07/26 06:55:00;;;;;;;5.88;0.90;;;16.90;99.90;;;;;;5003420;28;20048;-51
2022/07/26 06:57:26;;;;;;;6.35;0.98;;;16.90;99.90;;;;;;5003133;28;20107;-53
2022/07/26 06:59:52;;;;;;;7.55;1.00;;;17.20;99.90;;;;;;5003354;28;20053;-53
2022/07/26 07:02:17;;;;;;;6.22;1.40;;;17.30;99.90;;;;;;5001628;28;20401;-53
2022/07/26 07:04:43;;;;;;;5.00;1.00;;;17.20;99.90;;;;;;5003348;28;20050;-52
2022/07/26 07:07:09;;;;;;;7.32;1.17;;;17.10;99.90;;;;;;5010699;28;20049;-54
2022/07/26 07:09:35;;;;;;;6.47;0.98;;;17.00;99.90;;;;;;5005948;28;20137;-53
2022/07/26 07:12:02;;;;;;;8.93;1.00;;;17.00;99.90;;;;;;5002250;28;20146;-53
2022/07/26 07:14:28;;;;;;;5.15;0.80;;;17.00;99.90;;;;;;5002697;28;20161;-52
2022/07/26 07:16:55;;;;;;;10.98;1.33;;;17.20;99.90;;;;;;5002298;28;20476;-53
2022/07/26 07:19:21;;;;;;;6.68;0.85;;;17.30;99.90;;;;;;5000787;28;20045;-52
2022/07/26 07:21:46;;;;;;;4.90;0.95;;;17.30;99.90;;;;;;5002969;28;20540;-52
2022/07/26 07:24:12;;;;;;;6.68;1.10;;;17.40;99.90;;;;;;5001993;28;20041;-56
2022/07/26 07:26:38;;;;;;;6.35;1.02;;;17.50;99.90;;;;;;5002519;28;20053;-52
2022/07/26 07:29:04;;;;;;;5.25;1.02;;;17.80;99.90;;;;;;5002344;28;20041;-50
2022/07/26 07:31:29;;;;;;;5.50;0.90;;;17.90;99.90;;;;;;5001509;28;20042;-52
2022/07/26 07:33:55;;;;;;;8.23;1.10;;;18.00;99.90;;;;;;5002741;28;20061;-53
2022/07/26 07:36:20;;;;;;;6.32;0.95;;;18.00;99.90;;;;;;5000842;28;20464;-50
2022/07/26 07:38:49;;;;;;;7.05;1.10;;;18.10;99.90;;;;;;5002175;28;20456;-53
2022/07/26 07:41:17;;;;;;;4.10;0.90;;;18.10;99.90;;;;;;4985058;28;20085;-52
2022/07/26 07:43:43;;;;;;;7.97;1.13;;;18.20;99.90;;;;;;5003014;28;20480;-55
2022/07/26 07:46:08;;;;;;;3.75;0.77;;;18.00;99.90;;;;;;5002646;28;20044;-53
2022/07/26 07:48:36;;;;;;;6.55;0.70;;;18.10;99.90;;;;;;5000695;28;20575;-52
2022/07/26 07:51:02;;;;;;;4.43;0.70;;;18.10;99.90;;;;;;5002305;28;20048;-53
2022/07/26 07:53:27;;;;;;;5.90;0.80;;;18.30;99.90;;;;;;5001726;28;20042;-50
2022/07/26 07:55:53;;;;;;;6.20;0.82;;;18.90;99.90;;;;;;5002445;28;20480;-52
2022/07/26 07:58:19;;;;;;;5.20;0.85;;;19.20;99.90;;;;;;4983685;28;20037;-54
2022/07/26 08:00:44;;;;;;;4.75;0.73;;;19.20;99.90;;;;;;5002490;28;20049;-52
2022/07/26 08:03:10;;;;;;;5.47;0.70;;;19.40;99.90;;;;;;5001115;28;20521;-52
2022/07/26 08:05:36;;;;;;;4.93;0.85;;;19.80;99.90;;;;;;5002069;28;20046;-54
2022/07/26 08:08:02;;;;;;;2.92;0.65;;;20.20;99.90;;;;;;5012225;28;20062;-53
2022/07/26 08:10:28;;;;;;;7.68;1.05;;;20.20;99.90;;;;;;5001729;28;20089;-52
2022/07/26 08:12:53;;;;;;;5.20;0.93;;;20.40;99.90;;;;;;4984287;28;20054;-54
2022/07/26 08:15:22;;;;;;;5.60;0.93;;;20.10;99.90;;;;;;5001307;28;20056;-54
2022/07/26 08:17:48;;;;;;;4.70;1.00;;;19.90;99.90;;;;;;5001469;28;20108;-53
2022/07/26 08:20:14;;;;;;;4.57;0.93;;;19.40;99.90;;;;;;5002136;28;20448;-53
2022/07/26 08:22:40;;;;;;;6.20;1.13;;;19.10;99.90;;;;;;4983845;28;20054;-56
2022/07/26 08:25:06;;;;;;;5.15;1.00;;;18.60;99.90;;;;;;5000971;28;20046;-53
2022/07/26 08:27:32;;;;;;;7.63;1.85;;;18.60;99.90;;;;;;5001684;28;20119;-52
2022/07/26 08:29:57;;;;;;;8.40;1.42;;;18.50;99.90;;;;;;5008008;28;20041;-52
2022/07/26 08:32:23;;;;;;;7.82;1.67;;;18.30;99.90;;;;;;5028860;28;20835;-49
2022/07/26 08:34:48;;;;;;;8.38;1.58;;;18.50;99.90;;;;;;5032375;28;20387;-53
2022/07/26 08:37:14;;;;;;;6.75;1.45;;;18.60;99.90;;;;;;5041337;28;20573;-51
2022/07/26 08:39:40;;;;;;;6.32;1.20;;;18.70;99.90;;;;;;5040890;28;20118;-51
2022/07/26 08:42:13;;;;;;;4.93;0.82;;;18.80;99.90;;;;;;5041045;28;20068;-49
2022/07/26 08:44:42;;;;;;;4.20;1.10;;;18.70;99.90;;;;;;5040511;28;20121;-53
2022/07/26 08:47:13;;;;;;;3.97;1.10;;;19.20;99.90;;;;;;5040296;28;20136;-53
2022/07/26 08:49:39;;;;;;;3.47;0.93;;;19.70;99.90;;;;;;5040514;28;20051;-53
2022/07/26 08:52:05;;;;;;;6.57;1.23;;;19.80;99.90;;;;;;5040240;28;20217;-53
2022/07/26 08:54:32;;;;;;;5.03;0.90;;;20.40;99.90;;;;;;5040500;28;20051;-52
2022/07/26 08:56:58;;;;;;;5.22;0.95;;;20.20;99.90;;;;;;5040696;28;20083;-51
2022/07/26 08:59:23;;;;;;;6.15;1.05;;;20.30;99.90;;;;;;5006273;28;20127;-49
2022/07/26 09:02:01;;;;;;;5.45;1.10;;;20.30;99.90;;;;;;5021533;28;20136;-53
2022/07/26 09:04:29;;;;;;;6.35;1.35;;;20.40;99.90;;;;;;5040132;28;20041;-52
2022/07/26 09:07:10;;;;;;;7.60;1.20;;;20.30;99.90;;;;;;5022822;28;20041;-50
2022/07/26 09:09:38;;;;;;;7.32;1.40;;;20.60;99.90;;;;;;5004244;28;20329;-52
2022/07/26 09:12:25;;;;;;;4.13;1.00;;;20.70;99.90;;;;;;5000715;28;20045;-53
2022/07/26 09:14:52;;;;;;;7.35;0.90;;;20.50;99.90;;;;;;4982763;28;20053;-53
2022/07/26 09:17:20;;;;;;;7.97;2.17;;;20.70;99.90;;;;;;4999432;28;20050;-52
2022/07/26 09:20:06;;;;;;;7.72;1.52;;;20.90;99.90;;;;;;5000890;28;20223;-58
2022/07/26 09:22:32;;;;;;;7.10;1.17;;;21.10;99.90;;;;;;5000552;28;20053;-53
2022/07/26 09:24:58;;;;;;;4.25;1.08;;;21.00;99.90;;;;;;4999536;28;20030;-54
2022/07/26 09:27:32;;;;;;;6.80;1.15;;;20.70;99.90;;;;;;5000320;28;20062;-50
2022/07/26 09:30:05;;;;;;;7.90;1.48;;;20.20;99.90;;;;;;5000459;28;20714;-53
2022/07/26 09:32:31;;;;;;;6.55;1.35;;;19.70;99.90;;;;;;4999773;28;20085;-53
2022/07/26 09:35:09;;;;;;;7.25;1.13;;;19.50;99.90;;;;;;4999436;28;20496;-52
2022/07/26 09:37:37;;;;;;;6.68;1.20;;;19.20;99.90;;;;;;5000285;28;20057;-54
2022/07/26 09:40:07;;;;;;;7.50;1.52;;;19.10;99.90;;;;;;5000505;28;20796;-53
2022/07/26 09:42:32;;;;;;;4.47;1.08;;;19.10;99.90;;;;;;5004673;28;20454;-54
2022/07/26 09:44:59;;;;;;;4.18;1.25;;;19.30;99.90;;;;;;5017971;28;20045;-53
2022/07/26 09:47:38;;;;;;;6.57;1.38;;;19.40;99.90;;;;;;5017507;28;20049;-54
2022/07/26 09:50:10;;;;;;;6.57;1.40;;;19.10;99.90;;;;;;4999805;28;20468;-53
2022/07/26 09:52:36;;;;;;;6.13;1.52;;;19.10;99.90;;;;;;4999490;28;20061;-53
2022/07/26 09:55:06;;;;;;;7.03;1.45;;;18.90;99.90;;;;;;5000161;28;20042;-53
2022/07/26 09:57:34;;;;;;;7.95;1.50;;;18.80;99.90;;;;;;4999479;28;20137;-52
2022/07/26 10:00:06;;;;;;;8.50;1.60;;;18.80;99.90;;;;;;5001268;28;20038;-54
2022/07/26 10:02:32;;;;;;;5.85;1.40;;;18.80;99.90;;;;;;5018909;28;20381;-54
2022/07/26 10:04:57;;;;;;;7.05;1.30;;;18.90;99.90;;;;;;5019303;28;20048;-54
2022/07/26 10:07:23;;;;;;;7.13;1.42;;;19.00;99.90;;;;;;5013116;28;20034;-56
2022/07/26 10:10:00;;;;;;;10.10;1.70;;;19.10;99.90;;;;;;5000949;28;20042;-57
2022/07/26 10:12:29;;;;;;;7.32;1.45;;;19.10;99.90;;;;;;4997415;28;20594;-52
2022/07/26 10:14:55;;;;;;;10.77;2.25;;;19.10;99.90;;;;;;4999905;28;20573;-55
2022/07/26 10:17:30;;;;;;;9.85;1.83;;;19.50;99.90;;;;;;4997787;28;20046;-53
2022/07/26 10:20:04;;;;;;;13.07;2.10;;;19.50;99.90;;;;;;4998299;28;20771;-54
2022/07/26 10:22:42;;;;;;;10.57;1.95;;;19.50;99.90;;;;;;5019293;28;20055;-55
2022/07/26 10:25:16;;;;;;;12.75;2.38;;;19.70;99.90;;;;;;5019580;28;20045;-54
2022/07/26 10:27:54;;;;;;;;;;;19.90;99.90;;;;;;5020521;28;20427;-53
2022/07/26 10:30:24;;;;;;;16.60;2.55;;;19.50;99.90;;;;;;5018756;28;19928;-54
2022/07/26 10:32:49;;;;;;;9.88;2.55;;;19.50;99.90;;;;;;5019029;28;20050;-54
2022/07/26 10:35:41;;;;;;;8.68;2.40;;;19.40;99.90;;;;;;5019802;28;20059;-58
2022/07/26 10:38:25;;;;;;;11.85;2.25;;;19.50;99.90;;;;;;5019495;28;20514;-56
2022/07/26 10:41:06;;;;;;;12.52;2.35;;;19.60;99.90;;;;;;5019345;28;20510;-54
2022/07/26 10:43:33;;;;;;;12.00;2.05;;;19.40;99.90;;;;;;5019313;28;20065;-54
2022/07/26 10:46:17;;;;;;;9.77;2.65;;;19.40;99.90;;;;;;5018900;28;20049;-55
2022/07/26 10:49:03;;;;;;;12.35;2.35;;;19.60;99.90;;;;;;5019288;28;20061;-54
2022/07/26 10:51:39;;;;;;;11.93;2.00;;;19.70;99.90;;;;;;5019269;28;20042;-53
2022/07/26 10:54:10;;;;;;;10.18;2.10;;;20.00;99.90;;;;;;5001459;28;20510;-55
2022/07/26 10:56:37;;;;;;;8.63;2.00;;;20.10;99.90;;;;;;5019005;28;20049;-54
2022/07/26 10:59:04;;;;;;;13.52;2.08;;;20.20;99.90;;;;;;5021668;28;20669;-52
2022/07/26 11:01:35;;;;;;;9.93;2.03;;;20.00;99.90;;;;;;5021137;28;20038;-55
2022/07/26 11:04:01;;;;;;;14.43;1.90;;;19.90;99.90;;;;;;5023246;28;20124;-55
2022/07/26 11:06:31;;;;;;;8.77;1.92;;;19.90;99.90;;;;;;5016937;28;20060;-51
2022/07/26 11:08:57;;;;;;;11.18;1.80;;;19.80;99.90;;;;;;5011679;28;20108;-55
2022/07/26 11:11:28;;;;;;;9.48;2.03;;;19.90;99.90;;;;;;5001861;28;20042;-53
2022/07/26 11:14:10;;;;;;;9.48;1.92;;;20.00;99.90;;;;;;5002623;28;20057;-53
2022/07/26 11:16:47;;;;;;;8.05;1.80;;;20.00;99.90;;;;;;5001546;28;20144;-52
2022/07/26 11:19:13;;;;;;;7.03;1.33;;;20.30;99.90;;;;;;5014163;28;20562;-54
2022/07/26 11:21:40;;;;;;;7.47;1.73;;;20.40;99.90;;;;;;5032540;28;20072;-55
2022/07/26 11:24:06;;;;;;;7.95;1.90;;;20.60;99.90;;;;;;5031783;28;20885;-56
2022/07/26 11:26:43;;;;;;;6.40;1.58;;;20.70;99.90;;;;;;5039030;28;20084;-55
2022/07/26 11:29:09;;;;;;;7.55;1.55;;;20.90;99.90;;;;;;5042428;28;20675;-54
2022/07/26 11:31:38;;;;;;;8.90;1.77;;;20.80;99.90;;;;;;5041376;28;20415;-55
2022/07/26 11:34:05;;;;;;;6.88;1.50;;;20.40;99.90;;;;;;5042113;28;20442;-54
2022/07/26 11:36:36;;;;;;;8.43;1.67;;;20.30;99.90;;;;;;5023963;28;20116;-57
2022/07/26 11:39:04;;;;;;;5.97;1.17;;;20.10;99.90;;;;;;5041872;28;20048;-53
2022/07/26 11:41:30;;;;;;;4.03;1.38;;;20.00;99.90;;;;;;5040862;28;20059;-53
2022/07/26 11:43:57;;;;;;;5.63;1.40;;;20.00;99.90;;;;;;5042119;28;20131;-55
2022/07/26 11:46:34;;;;;;;5.68;1.50;;;19.70;99.90;;;;;;5023101;28;20496;-53
2022/07/26 11:49:01;;;;;;;6.72;1.42;;;19.80;99.90;;;;;;5041159;28;20041;-54
2022/07/26 11:51:26;;;;;;;9.80;1.63;;;19.90;99.90;;;;;;5041398;28;20619;-53
2022/07/26 11:53:58;;;;;;;10.55;1.83;;;19.80;99.90;;;;;;5041938;28;20072;-53
2022/07/26 11:56:26;;;;;;;4.85;1.38;;;19.90;99.90;;;;;;5041621;28;20501;-54
2022/07/26 11:58:54;;;;;;;5.40;1.05;;;19.80;99.90;;;;;;5041632;28;20049;-54
2022/07/26 12:01:22;;;;;;;7.53;1.38;;;20.20;99.90;;;;;;5040564;28;20166;-54
2022/07/26 12:03:50;;;;;;;4.70;1.10;;;20.30;99.90;;;;;;5041910;28;20041;-52
2022/07/26 12:06:21;;;;;;;5.32;1.05;;;20.30;99.90;;;;;;5030582;28;20056;-58
2022/07/26 12:08:49;;;;;;;5.32;1.00;;;20.20;99.90;;;;;;5010277;28;20117;-57
2022/07/26 12:11:16;;;;;;;8.95;1.30;;;20.40;99.90;;;;;;5002053;28;20408;-57
2022/07/26 12:13:58;;;;;;;7.18;1.40;;;20.50;99.90;;;;;;5001669;28;20062;-59
2022/07/26 12:16:44;;;;;;;4.60;1.10;;;20.60;99.90;;;;;;5024060;28;20407;-56
2022/07/26 12:19:30;;;;;;;13.50;2.03;;;20.70;99.90;;;;;;5029404;28;20042;-55
2022/07/26 12:21:58;;;;;;;8.05;1.60;;;20.80;99.90;;;;;;5023034;28;20390;-58
2022/07/26 12:24:36;;;;;;;9.75;1.45;;;20.80;99.90;;;;;;5041074;28;20123;-55
2022/07/26 12:27:19;;;;;;;7.20;1.13;;;20.70;99.90;;;;;;5041069;28;20128;-57
2022/07/26 12:29:52;;;;;;;4.28;0.85;;;20.40;99.90;;;;;;5023753;28;20052;-56
2022/07/26 12:32:20;;;;;;;5.32;1.15;;;20.60;99.90;;;;;;5021910;28;20057;-56
2022/07/26 12:34:59;;;;;;;8.73;1.30;;;20.90;99.90;;;;;;5041316;28;20095;-57
2022/07/26 12:37:28;;;;;;;5.78;1.10;;;20.90;99.90;;;;;;5040405;28;20462;-57
2022/07/26 12:40:21;;;;;;;7.63;1.23;;;20.90;99.90;;;;;;5041134;28;21438;-57
2022/07/26 12:42:50;;;;;;;5.25;0.98;;;20.90;99.90;;;;;;5036391;28;20479;-57
2022/07/26 12:45:21;;;;;;;4.28;0.90;;;21.00;99.90;;;;;;5040578;28;20061;-58
2022/07/26 12:47:49;;;;;;;3.47;0.90;;;20.90;99.90;;;;;;5040358;28;20251;-57